Rv Quinn Delta — WDC4115 — position and weather

sailwx.info

Track history (hours):
 
Tides and Currents Weather Stations Pressure Air Temp Water Temp Dewpoint Dewpoint Depression Visibility Wind Speed Wind Dir Waves Ship Positions

Rv Quinn Delta

Owner: GREGG DRILLING & TESTING, INC., SIGNAL HILL, CA. More information available from US FCC via Universal Licensing System and Coast Guard Vessel Documentation Center.

Last reported at 2018-Feb-12 21:13 UTC. Time now 2018-Apr-23 05:36 UTC.
Position N 35°22' W 121°03'.
Warning: this ship's position is months out of date.

Length 31 m; draft 2 m.

Type: Other ship. MMSI: 367019310.

Date/timePositionNaut miles runAvg speedWind from/ knotsBaromVisibWave heightAir tempDewpointWater temp
2018-Feb-12 21:13N 35°22' W 121°03'1 4.4
2018-Feb-12 21:00N 35°21' W 121°02'2 4.6
2018-Feb-12 20:30N 35°19' W 121°00'3 5.4
2018-Feb-12 20:00N 35°17' W 120°58'3 5.0
2018-Feb-12 19:30N 35°15' W 120°56'2 5.0
2018-Feb-12 19:00N 35°14' W 120°54'3 5.3
2018-Feb-12 18:30N 35°12' W 120°52'3 5.4
2018-Feb-12 18:00N 35°10' W 120°50'3 5.1
2018-Feb-12 17:30N 35°08' W 120°47'3 5.4
2018-Feb-12 17:00N 35°10' W 120°44'0 0.7
2018-Feb-12 16:30N 35°10' W 120°44'0 0.0
2018-Feb-12 16:00N 35°10' W 120°44'0 0.0
2018-Feb-12 15:31N 35°10' W 120°44'0 0.0
2018-Feb-12 15:00N 35°10' W 120°44'0 0.0
2018-Feb-12 14:30N 35°10' W 120°44'0 0.0
2018-Feb-12 14:00N 35°10' W 120°44'0 0.0
2018-Feb-12 13:30N 35°10' W 120°44'0 0.0
2018-Feb-12 13:00N 35°10' W 120°44'0 0.0
2018-Feb-12 12:31N 35°10' W 120°44'0 0.0
2018-Feb-12 12:00N 35°10' W 120°44'0 0.0
2018-Feb-12 11:30N 35°10' W 120°44'0 0.0
2018-Feb-12 11:00N 35°10' W 120°44'0 0.0
2018-Feb-12 10:30N 35°10' W 120°44'0 0.0
2018-Feb-12 10:00N 35°10' W 120°44'0 0.0
2018-Feb-12 09:31N 35°10' W 120°44'0 0.0
2018-Feb-12 09:00N 35°10' W 120°44'0 0.0
2018-Feb-12 08:30N 35°10' W 120°44'0 0.0
2018-Feb-12 08:00N 35°10' W 120°44'0 0.0
2018-Feb-12 07:30N 35°10' W 120°44'1 1.6
2018-Feb-12 07:00N 35°10' W 120°45'2 3.9
2018-Feb-12 06:30N 35°08' W 120°45'3 6.1
2018-Feb-12 06:00N 35°05' W 120°46'5 5.7
2018-Feb-12 05:12N 35°01' W 120°48'1 5.2
2018-Feb-12 04:59N 34°60' W 120°49'2 5.1
2018-Feb-12 04:30N 34°58' W 120°50'2 3.2
2018-Feb-12 04:00N 34°56' W 120°51'0 0.4
2018-Feb-12 03:30N 34°56' W 120°50'0 0.2
2018-Feb-12 02:59N 34°56' W 120°50'0 0.0
2018-Feb-12 02:30N 34°56' W 120°50'0 0.1
2018-Feb-12 02:00N 34°56' W 120°50'0 0.3
2018-Feb-12 01:30N 34°56' W 120°51'0 0.0
2018-Feb-12 01:00N 34°56' W 120°51'0 0.1
2018-Feb-12 00:30N 34°56' W 120°50'0 0.1
2018-Feb-12 00:00N 34°56' W 120°50'0 0.0
2018-Feb-11 23:30N 34°56' W 120°50'0 0.3
2018-Feb-11 23:00N 34°56' W 120°51'0 0.2
2018-Feb-11 22:30N 34°56' W 120°50'0 0.3
2018-Feb-11 22:00N 34°56' W 120°51'0 0.2
2018-Feb-11 21:30N 34°56' W 120°51'0 0.0
2018-Feb-11 21:00N 34°56' W 120°51'0 0.2
2018-Feb-11 20:30N 34°56' W 120°50'0 0.1
2018-Feb-11 20:00N 34°56' W 120°50'3 6.1
2018-Feb-11 19:30N 34°59' W 120°49'4 7.1
2018-Feb-11 19:00N 35°02' W 120°47'4 7.3
2018-Feb-11 18:30N 35°06' W 120°46'4 7.0
2018-Feb-11 18:00N 35°09' W 120°45'1 2.2
2018-Feb-11 17:28N 35°10' W 120°44'0 0.2
2018-Feb-11 17:00N 35°10' W 120°44'0 0.1
2018-Feb-11 16:30N 35°10' W 120°44'0 0.0
2018-Feb-11 16:00N 35°10' W 120°44'0 0.0
2018-Feb-11 15:30N 35°10' W 120°44'0 0.0
2018-Feb-11 15:00N 35°10' W 120°44'2 4.6
2018-Feb-11 14:30N 35°08' W 120°44'4 7.0
2018-Feb-11 14:00N 35°05' W 120°44'3 6.8
2018-Feb-11 13:30N 35°01' W 120°45'3 6.8
2018-Feb-11 13:00N 34°58' W 120°46'3 6.6
2018-Feb-11 12:30N 34°55' W 120°46'3 6.5
2018-Feb-11 12:00N 34°51' W 120°47'3 6.4
2018-Feb-11 11:30N 34°48' W 120°47'3 6.3
2018-Feb-11 11:00N 34°45' W 120°47'3 6.1
2018-Feb-11 10:30N 34°42' W 120°46'3 6.1
2018-Feb-11 10:00N 34°39' W 120°46'3 6.1
2018-Feb-11 09:30N 34°36' W 120°45'3 6.1
2018-Feb-11 09:00N 34°34' W 120°43'3 6.2
2018-Feb-11 08:30N 34°32' W 120°40'3 6.0
2018-Feb-11 08:00N 34°30' W 120°37'3 6.5
2018-Feb-11 07:30N 34°27' W 120°34'3 5.8
2018-Feb-11 07:00N 34°25' W 120°32'3 6.6
2018-Feb-11 06:30N 34°24' W 120°28'3 6.4
2018-Feb-11 06:00N 34°23' W 120°25'3 6.6
2018-Feb-11 05:30N 34°21' W 120°21'4 6.5
2018-Feb-11 04:56N 34°20' W 120°17'3 6.5
2018-Feb-11 04:28N 34°19' W 120°13'3 6.5
2018-Feb-11 04:00N 34°19' W 120°10'5 6.7
2018-Feb-11 03:17N 34°18' W 120°04'2 6.8
2018-Feb-11 03:00N 34°17' W 120°02'3 6.8
2018-Feb-11 02:30N 34°16' W 119°58'4 7.1
2018-Feb-11 02:00N 34°15' W 119°54'4 7.0
2018-Feb-11 01:28N 34°14' W 119°49'4 7.0
2018-Feb-11 00:58N 34°13' W 119°45'5 7.0
2018-Feb-11 00:16N 34°12' W 119°40'2 6.9
2018-Feb-10 23:55N 34°11' W 119°37'3 7.0
2018-Feb-10 23:30N 34°11' W 119°33'4 7.2
2018-Feb-10 22:56N 34°09' W 119°29'3 7.2
2018-Feb-10 22:30N 34°09' W 119°25'4 7.2
2018-Feb-10 22:00N 34°07' W 119°21'4 7.1
2018-Feb-10 21:30N 34°06' W 119°17'4 7.1
2018-Feb-10 21:00N 34°05' W 119°13'4 7.1
2018-Feb-10 20:30N 34°03' W 119°09'4 7.3
2018-Feb-10 20:00N 34°01' W 119°05'4 7.4
2018-Feb-10 19:30N 33°60' W 119°01'4 7.6
2018-Feb-10 19:00N 33°58' W 118°57'4 7.4
2018-Feb-10 18:30N 33°56' W 118°53'4 7.3
2018-Feb-10 18:00N 33°55' W 118°50'4 7.3
2018-Feb-10 17:30N 33°53' W 118°46'26 7.3
2018-Feb-10 13:54N 33°42' W 118°17'1 3.7
2018-Feb-10 13:30N 33°43' W 118°16'1 0.1
2018-Feb-10 01:43N 33°43' W 118°17'0 0.0
2018-Feb-10 01:28N 33°43' W 118°17'0 0.0
2018-Feb-10 00:52N 33°43' W 118°17'0 0.0
2018-Feb-10 00:28N 33°43' W 118°17'0 0.0
2018-Feb-09 23:58N 33°43' W 118°17'0 0.0
2018-Feb-09 23:29N 33°43' W 118°17'0 0.0
2018-Feb-09 22:53N 33°43' W 118°17'0 0.0
2018-Feb-09 22:41N 33°43' W 118°17'4 0.2
2018-Feb-09 00:30N 33°46' W 118°13'1 1.5
2018-Feb-09 00:00N 33°46' W 118°13'0 0.0
2018-Feb-08 22:00N 33°46' W 118°13'0 0.0
2018-Feb-08 21:30N 33°46' W 118°13'0 0.0
2018-Feb-08 20:30N 33°46' W 118°13'0 0.0
2018-Feb-08 19:30N 33°46' W 118°13'0 0.0
2018-Feb-08 19:00N 33°46' W 118°13'0 0.0
2018-Feb-08 18:30N 33°46' W 118°13'0 0.0
2018-Feb-08 18:00N 33°46' W 118°13'0 0.0
2018-Feb-08 17:30N 33°46' W 118°13'0 0.0
2018-Feb-08 17:00N 33°46' W 118°13'0 0.0
2018-Feb-08 16:00N 33°46' W 118°13'0 0.0
2018-Feb-08 15:30N 33°46' W 118°13'0 0.0
2018-Feb-08 15:00N 33°46' W 118°13'0 0.0
2018-Feb-08 01:30N 33°46' W 118°13'0 0.0
2018-Feb-08 01:00N 33°46' W 118°13'0 0.0
2018-Feb-08 00:30N 33°46' W 118°13'0 0.0
2018-Feb-08 00:00N 33°46' W 118°13'0 0.0
2018-Feb-07 23:30N 33°46' W 118°13'0 0.0
2018-Feb-07 23:00N 33°46' W 118°13'0 0.0
2018-Feb-07 22:30N 33°46' W 118°13'0 0.0
2018-Feb-07 22:00N 33°46' W 118°13'0 0.0
2018-Feb-07 21:29N 33°46' W 118°13'0 0.0
2018-Feb-07 07:27N 33°46' W 118°13'0 0.0
2018-Feb-07 06:48N 33°46' W 118°13'0 0.0
2018-Feb-07 01:39N 33°46' W 118°13'0 0.0
2018-Feb-07 01:30N 33°46' W 118°13'0 0.0
2018-Feb-07 01:00N 33°46' W 118°13'0 0.0
2018-Feb-07 00:30N 33°46' W 118°13'0 0.0
2018-Feb-07 00:00N 33°46' W 118°13'0 0.0
2018-Feb-06 23:30N 33°46' W 118°13'0 0.0
2018-Feb-06 23:00N 33°46' W 118°13'0 0.0
2018-Feb-06 22:30N 33°46' W 118°13'0 0.0
2018-Feb-06 22:00N 33°46' W 118°13'0 0.0
2018-Feb-06 21:30N 33°46' W 118°13'0 0.0
2018-Feb-06 21:00N 33°46' W 118°13'0 0.0
2018-Feb-06 20:30N 33°46' W 118°13'0 0.0
2018-Feb-06 20:00N 33°46' W 118°13'0 0.0
2018-Feb-06 19:30N 33°46' W 118°13'0 0.0
2018-Feb-06 19:00N 33°46' W 118°13'0 0.0
2018-Feb-06 18:30N 33°46' W 118°13'0 0.0
2018-Feb-06 18:00N 33°46' W 118°13'0 0.0
2018-Feb-06 17:30N 33°46' W 118°13'0 0.0
2018-Feb-06 17:00N 33°46' W 118°13'0 0.0
2018-Feb-06 16:24N 33°46' W 118°13'0 0.0
2018-Feb-06 16:00N 33°46' W 118°13'0 0.0
2018-Feb-06 15:30N 33°46' W 118°13'0 0.0
2018-Feb-06 15:00N 33°46' W 118°13'0 0.1
2018-Feb-06 14:27N 33°46' W 118°13'0 0.0
2018-Feb-06 01:39N 33°46' W 118°13'0 0.0
2018-Feb-06 01:30N 33°46' W 118°13'0 0.0
2018-Feb-06 01:00N 33°46' W 118°13'0 0.1
2018-Feb-06 00:30N 33°46' W 118°13'0 0.0
2018-Feb-06 00:00N 33°46' W 118°13'0 0.0
2018-Feb-05 23:30N 33°46' W 118°13'0 0.0
2018-Feb-05 23:00N 33°46' W 118°13'0 0.1
2018-Feb-05 22:30N 33°46' W 118°13'0 0.1
2018-Feb-05 22:00N 33°46' W 118°13'0 0.0
2018-Feb-05 21:30N 33°46' W 118°13'0 0.0
2018-Feb-05 21:00N 33°46' W 118°13'0 0.0
2018-Feb-05 20:30N 33°46' W 118°13'0 0.0
2018-Feb-05 20:00N 33°46' W 118°13'0 0.0
2018-Feb-05 19:30N 33°46' W 118°13'0 0.0
2018-Feb-05 19:00N 33°46' W 118°13'0 0.0
2018-Feb-05 18:30N 33°46' W 118°13'0 0.0
2018-Feb-05 18:00N 33°46' W 118°13'0 0.0
2018-Feb-05 17:30N 33°46' W 118°13'0 0.0
2018-Feb-05 17:00N 33°46' W 118°13'0 0.0
2018-Feb-05 16:29N 33°46' W 118°13'0 0.0
2018-Feb-05 16:00N 33°46' W 118°13'0 0.1
2018-Feb-05 15:30N 33°46' W 118°13'0 0.1
2018-Feb-05 15:00N 33°46' W 118°13'0 0.0
2018-Feb-05 14:30N 33°46' W 118°13'0 0.0
2018-Feb-05 13:59N 33°46' W 118°13'0 0.0
2018-Feb-05 13:11N 33°46' W 118°13'0 0.3
2018-Feb-05 13:00N 33°46' W 118°13'0 0.0
2018-Feb-05 11:35N 33°46' W 118°13'0 0.1
2018-Feb-05 11:06N 33°46' W 118°13'0 0.3
2018-Feb-05 10:55N 33°46' W 118°13'0 0.1
2018-Feb-05 10:29N 33°46' W 118°13'0 0.0
2018-Feb-05 09:59N 33°46' W 118°13'0 0.1
2018-Feb-05 09:21N 33°46' W 118°13'0 0.1
2018-Feb-05 08:31N 33°46' W 118°13'0 0.0
2018-Feb-05 08:26N 33°46' W 118°13'0 0.0
2018-Feb-05 06:28N 33°46' W 118°13'0 0.0
2018-Feb-05 05:04N 33°46' W 118°13'0 0.0
2018-Feb-05 04:52N 33°46' W 118°13'0 0.0
2018-Feb-05 02:26N 33°46' W 118°13'2 5.3
2018-Feb-05 02:00N 33°44' W 118°13'3 6.0
2018-Feb-05 01:30N 33°43' W 118°17'0 0.4
2018-Feb-05 00:50N 33°43' W 118°17'0 0.0
2018-Feb-05 00:26N 33°43' W 118°17'0 0.0
2018-Feb-04 23:59N 33°43' W 118°17'0 0.0
2018-Feb-04 23:29N 33°43' W 118°17'0 0.0
2018-Feb-04 22:53N 33°43' W 118°17'0 0.0
2018-Feb-04 22:29N 33°43' W 118°17'0 0.0
2018-Feb-04 22:00N 33°43' W 118°17'  
Track history (hours):
 
Tides and Currents Weather Stations Pressure Air Temp Water Temp Dewpoint Dewpoint Depression Visibility Wind Speed Wind Dir Waves Ship Positions

Rv Quinn Delta

Owner: GREGG DRILLING & TESTING, INC., SIGNAL HILL, CA. More information available from US FCC via Universal Licensing System and Coast Guard Vessel Documentation Center.

Last reported at 2018-Feb-12 21:13 UTC. Time now 2018-Apr-23 05:36 UTC.
Position N 35°22' W 121°03'.
Warning: this ship's position is months out of date.

Length 31 m; draft 2 m.

Type: Other ship. MMSI: 367019310.

Date/timePositionNaut miles runAvg speedWind from/ knotsBaromVisibWave heightAir tempDewpointWater temp
2018-Feb-12 21:13N 35°22' W 121°03'1 4.4
2018-Feb-12 21:00N 35°21' W 121°02'2 4.6
2018-Feb-12 20:30N 35°19' W 121°00'3 5.4
2018-Feb-12 20:00N 35°17' W 120°58'3 5.0
2018-Feb-12 19:30N 35°15' W 120°56'2 5.0
2018-Feb-12 19:00N 35°14' W 120°54'3 5.3
2018-Feb-12 18:30N 35°12' W 120°52'3 5.4
2018-Feb-12 18:00N 35°10' W 120°50'3 5.1
2018-Feb-12 17:30N 35°08' W 120°47'3 5.4
2018-Feb-12 17:00N 35°10' W 120°44'0 0.7
2018-Feb-12 16:30N 35°10' W 120°44'0 0.0
2018-Feb-12 16:00N 35°10' W 120°44'0 0.0
2018-Feb-12 15:31N 35°10' W 120°44'0 0.0
2018-Feb-12 15:00N 35°10' W 120°44'0 0.0
2018-Feb-12 14:30N 35°10' W 120°44'0 0.0
2018-Feb-12 14:00N 35°10' W 120°44'0 0.0
2018-Feb-12 13:30N 35°10' W 120°44'0 0.0
2018-Feb-12 13:00N 35°10' W 120°44'0 0.0
2018-Feb-12 12:31N 35°10' W 120°44'0 0.0
2018-Feb-12 12:00N 35°10' W 120°44'0 0.0
2018-Feb-12 11:30N 35°10' W 120°44'0 0.0
2018-Feb-12 11:00N 35°10' W 120°44'0 0.0
2018-Feb-12 10:30N 35°10' W 120°44'0 0.0
2018-Feb-12 10:00N 35°10' W 120°44'0 0.0
2018-Feb-12 09:31N 35°10' W 120°44'0 0.0
2018-Feb-12 09:00N 35°10' W 120°44'0 0.0
2018-Feb-12 08:30N 35°10' W 120°44'0 0.0
2018-Feb-12 08:00N 35°10' W 120°44'0 0.0
2018-Feb-12 07:30N 35°10' W 120°44'1 1.6
2018-Feb-12 07:00N 35°10' W 120°45'2 3.9
2018-Feb-12 06:30N 35°08' W 120°45'3 6.1
2018-Feb-12 06:00N 35°05' W 120°46'5 5.7
2018-Feb-12 05:12N 35°01' W 120°48'1 5.2
2018-Feb-12 04:59N 34°60' W 120°49'2 5.1
2018-Feb-12 04:30N 34°58' W 120°50'2 3.2
2018-Feb-12 04:00N 34°56' W 120°51'0 0.4
2018-Feb-12 03:30N 34°56' W 120°50'0 0.2
2018-Feb-12 02:59N 34°56' W 120°50'0 0.0
2018-Feb-12 02:30N 34°56' W 120°50'0 0.1
2018-Feb-12 02:00N 34°56' W 120°50'0 0.3
2018-Feb-12 01:30N 34°56' W 120°51'0 0.0
2018-Feb-12 01:00N 34°56' W 120°51'0 0.1
2018-Feb-12 00:30N 34°56' W 120°50'0 0.1
2018-Feb-12 00:00N 34°56' W 120°50'0 0.0
2018-Feb-11 23:30N 34°56' W 120°50'0 0.3
2018-Feb-11 23:00N 34°56' W 120°51'0 0.2
2018-Feb-11 22:30N 34°56' W 120°50'0 0.3
2018-Feb-11 22:00N 34°56' W 120°51'0 0.2
2018-Feb-11 21:30N 34°56' W 120°51'0 0.0
2018-Feb-11 21:00N 34°56' W 120°51'0 0.2
2018-Feb-11 20:30N 34°56' W 120°50'0 0.1
2018-Feb-11 20:00N 34°56' W 120°50'3 6.1
2018-Feb-11 19:30N 34°59' W 120°49'4 7.1
2018-Feb-11 19:00N 35°02' W 120°47'4 7.3
2018-Feb-11 18:30N 35°06' W 120°46'4 7.0
2018-Feb-11 18:00N 35°09' W 120°45'1 2.2
2018-Feb-11 17:28N 35°10' W 120°44'0 0.2
2018-Feb-11 17:00N 35°10' W 120°44'0 0.1
2018-Feb-11 16:30N 35°10' W 120°44'0 0.0
2018-Feb-11 16:00N 35°10' W 120°44'0 0.0
2018-Feb-11 15:30N 35°10' W 120°44'0 0.0
2018-Feb-11 15:00N 35°10' W 120°44'2 4.6
2018-Feb-11 14:30N 35°08' W 120°44'4 7.0
2018-Feb-11 14:00N 35°05' W 120°44'3 6.8
2018-Feb-11 13:30N 35°01' W 120°45'3 6.8
2018-Feb-11 13:00N 34°58' W 120°46'3 6.6
2018-Feb-11 12:30N 34°55' W 120°46'3 6.5
2018-Feb-11 12:00N 34°51' W 120°47'3 6.4
2018-Feb-11 11:30N 34°48' W 120°47'3 6.3
2018-Feb-11 11:00N 34°45' W 120°47'3 6.1
2018-Feb-11 10:30N 34°42' W 120°46'3 6.1
2018-Feb-11 10:00N 34°39' W 120°46'3 6.1
2018-Feb-11 09:30N 34°36' W 120°45'3 6.1
2018-Feb-11 09:00N 34°34' W 120°43'3 6.2
2018-Feb-11 08:30N 34°32' W 120°40'3 6.0
2018-Feb-11 08:00N 34°30' W 120°37'3 6.5
2018-Feb-11 07:30N 34°27' W 120°34'3 5.8
2018-Feb-11 07:00N 34°25' W 120°32'3 6.6
2018-Feb-11 06:30N 34°24' W 120°28'3 6.4
2018-Feb-11 06:00N 34°23' W 120°25'3 6.6
2018-Feb-11 05:30N 34°21' W 120°21'4 6.5
2018-Feb-11 04:56N 34°20' W 120°17'3 6.5
2018-Feb-11 04:28N 34°19' W 120°13'3 6.5
2018-Feb-11 04:00N 34°19' W 120°10'5 6.7
2018-Feb-11 03:17N 34°18' W 120°04'2 6.8
2018-Feb-11 03:00N 34°17' W 120°02'3 6.8
2018-Feb-11 02:30N 34°16' W 119°58'4 7.1
2018-Feb-11 02:00N 34°15' W 119°54'4 7.0
2018-Feb-11 01:28N 34°14' W 119°49'4 7.0
2018-Feb-11 00:58N 34°13' W 119°45'5 7.0
2018-Feb-11 00:16N 34°12' W 119°40'2 6.9
2018-Feb-10 23:55N 34°11' W 119°37'3 7.0
2018-Feb-10 23:30N 34°11' W 119°33'4 7.2
2018-Feb-10 22:56N 34°09' W 119°29'3 7.2
2018-Feb-10 22:30N 34°09' W 119°25'4 7.2
2018-Feb-10 22:00N 34°07' W 119°21'4 7.1
2018-Feb-10 21:30N 34°06' W 119°17'4 7.1
2018-Feb-10 21:00N 34°05' W 119°13'4 7.1
2018-Feb-10 20:30N 34°03' W 119°09'4 7.3
2018-Feb-10 20:00N 34°01' W 119°05'4 7.4
2018-Feb-10 19:30N 33°60' W 119°01'4 7.6
2018-Feb-10 19:00N 33°58' W 118°57'4 7.4
2018-Feb-10 18:30N 33°56' W 118°53'4 7.3
2018-Feb-10 18:00N 33°55' W 118°50'4 7.3
2018-Feb-10 17:30N 33°53' W 118°46'26 7.3
2018-Feb-10 13:54N 33°42' W 118°17'1 3.7
2018-Feb-10 13:30N 33°43' W 118°16'1 0.1
2018-Feb-10 01:43N 33°43' W 118°17'0 0.0
2018-Feb-10 01:28N 33°43' W 118°17'0 0.0
2018-Feb-10 00:52N 33°43' W 118°17'0 0.0
2018-Feb-10 00:28N 33°43' W 118°17'0 0.0
2018-Feb-09 23:58N 33°43' W 118°17'0 0.0
2018-Feb-09 23:29N 33°43' W 118°17'0 0.0
2018-Feb-09 22:53N 33°43' W 118°17'0 0.0
2018-Feb-09 22:41N 33°43' W 118°17'4 0.2
2018-Feb-09 00:30N 33°46' W 118°13'1 1.5
2018-Feb-09 00:00N 33°46' W 118°13'0 0.0
2018-Feb-08 22:00N 33°46' W 118°13'0 0.0
2018-Feb-08 21:30N 33°46' W 118°13'0 0.0
2018-Feb-08 20:30N 33°46' W 118°13'0 0.0
2018-Feb-08 19:30N 33°46' W 118°13'0 0.0
2018-Feb-08 19:00N 33°46' W 118°13'0 0.0
2018-Feb-08 18:30N 33°46' W 118°13'0 0.0
2018-Feb-08 18:00N 33°46' W 118°13'0 0.0
2018-Feb-08 17:30N 33°46' W 118°13'0 0.0
2018-Feb-08 17:00N 33°46' W 118°13'0 0.0
2018-Feb-08 16:00N 33°46' W 118°13'0 0.0
2018-Feb-08 15:30N 33°46' W 118°13'0 0.0
2018-Feb-08 15:00N 33°46' W 118°13'0 0.0
2018-Feb-08 01:30N 33°46' W 118°13'0 0.0
2018-Feb-08 01:00N 33°46' W 118°13'0 0.0
2018-Feb-08 00:30N 33°46' W 118°13'0 0.0
2018-Feb-08 00:00N 33°46' W 118°13'0 0.0
2018-Feb-07 23:30N 33°46' W 118°13'0 0.0
2018-Feb-07 23:00N 33°46' W 118°13'0 0.0
2018-Feb-07 22:30N 33°46' W 118°13'0 0.0
2018-Feb-07 22:00N 33°46' W 118°13'0 0.0
2018-Feb-07 21:29N 33°46' W 118°13'0 0.0
2018-Feb-07 07:27N 33°46' W 118°13'0 0.0
2018-Feb-07 06:48N 33°46' W 118°13'0 0.0
2018-Feb-07 01:39N 33°46' W 118°13'0 0.0
2018-Feb-07 01:30N 33°46' W 118°13'0 0.0
2018-Feb-07 01:00N 33°46' W 118°13'0 0.0
2018-Feb-07 00:30N 33°46' W 118°13'0 0.0
2018-Feb-07 00:00N 33°46' W 118°13'0 0.0
2018-Feb-06 23:30N 33°46' W 118°13'0 0.0
2018-Feb-06 23:00N 33°46' W 118°13'0 0.0
2018-Feb-06 22:30N 33°46' W 118°13'0 0.0
2018-Feb-06 22:00N 33°46' W 118°13'0 0.0
2018-Feb-06 21:30N 33°46' W 118°13'0 0.0
2018-Feb-06 21:00N 33°46' W 118°13'0 0.0
2018-Feb-06 20:30N 33°46' W 118°13'0 0.0
2018-Feb-06 20:00N 33°46' W 118°13'0 0.0
2018-Feb-06 19:30N 33°46' W 118°13'0 0.0
2018-Feb-06 19:00N 33°46' W 118°13'0 0.0
2018-Feb-06 18:30N 33°46' W 118°13'0 0.0
2018-Feb-06 18:00N 33°46' W 118°13'0 0.0
2018-Feb-06 17:30N 33°46' W 118°13'0 0.0
2018-Feb-06 17:00N 33°46' W 118°13'0 0.0
2018-Feb-06 16:24N 33°46' W 118°13'0 0.0
2018-Feb-06 16:00N 33°46' W 118°13'0 0.0
2018-Feb-06 15:30N 33°46' W 118°13'0 0.0
2018-Feb-06 15:00N 33°46' W 118°13'0 0.1
2018-Feb-06 14:27N 33°46' W 118°13'0 0.0
2018-Feb-06 01:39N 33°46' W 118°13'0 0.0
2018-Feb-06 01:30N 33°46' W 118°13'0 0.0
2018-Feb-06 01:00N 33°46' W 118°13'0 0.1
2018-Feb-06 00:30N 33°46' W 118°13'0 0.0
2018-Feb-06 00:00N 33°46' W 118°13'0 0.0
2018-Feb-05 23:30N 33°46' W 118°13'0 0.0
2018-Feb-05 23:00N 33°46' W 118°13'0 0.1
2018-Feb-05 22:30N 33°46' W 118°13'0 0.1
2018-Feb-05 22:00N 33°46' W 118°13'0 0.0
2018-Feb-05 21:30N 33°46' W 118°13'0 0.0
2018-Feb-05 21:00N 33°46' W 118°13'0 0.0
2018-Feb-05 20:30N 33°46' W 118°13'0 0.0
2018-Feb-05 20:00N 33°46' W 118°13'0 0.0
2018-Feb-05 19:30N 33°46' W 118°13'0 0.0
2018-Feb-05 19:00N 33°46' W 118°13'0 0.0
2018-Feb-05 18:30N 33°46' W 118°13'0 0.0
2018-Feb-05 18:00N 33°46' W 118°13'0 0.0
2018-Feb-05 17:30N 33°46' W 118°13'0 0.0
2018-Feb-05 17:00N 33°46' W 118°13'0 0.0
2018-Feb-05 16:29N 33°46' W 118°13'0 0.0
2018-Feb-05 16:00N 33°46' W 118°13'0 0.1
2018-Feb-05 15:30N 33°46' W 118°13'0 0.1
2018-Feb-05 15:00N 33°46' W 118°13'0 0.0
2018-Feb-05 14:30N 33°46' W 118°13'0 0.0
2018-Feb-05 13:59N 33°46' W 118°13'0 0.0
2018-Feb-05 13:11N 33°46' W 118°13'0 0.3
2018-Feb-05 13:00N 33°46' W 118°13'0 0.0
2018-Feb-05 11:35N 33°46' W 118°13'0 0.1
2018-Feb-05 11:06N 33°46' W 118°13'0 0.3
2018-Feb-05 10:55N 33°46' W 118°13'0 0.1
2018-Feb-05 10:29N 33°46' W 118°13'0 0.0
2018-Feb-05 09:59N 33°46' W 118°13'0 0.1
2018-Feb-05 09:21N 33°46' W 118°13'0 0.1
2018-Feb-05 08:31N 33°46' W 118°13'0 0.0
2018-Feb-05 08:26N 33°46' W 118°13'0 0.0
2018-Feb-05 06:28N 33°46' W 118°13'0 0.0
2018-Feb-05 05:04N 33°46' W 118°13'0 0.0
2018-Feb-05 04:52N 33°46' W 118°13'0 0.0
2018-Feb-05 02:26N 33°46' W 118°13'2 5.3
2018-Feb-05 02:00N 33°44' W 118°13'3 6.0
2018-Feb-05 01:30N 33°43' W 118°17'0 0.4
2018-Feb-05 00:50N 33°43' W 118°17'0 0.0
2018-Feb-05 00:26N 33°43' W 118°17'0 0.0
2018-Feb-04 23:59N 33°43' W 118°17'0 0.0
2018-Feb-04 23:29N 33°43' W 118°17'0 0.0
2018-Feb-04 22:53N 33°43' W 118°17'0 0.0
2018-Feb-04 22:29N 33°43' W 118°17'0 0.0
2018-Feb-04 22:00N 33°43' W 118°17'  

Dump ship's entire track history